sensor_id;sensor_type;location;lat;lon;timestamp;P1;durP1;ratioP1;P2;durP2;ratioP2
51286;SDS011;37364;46.974;18.916;2022-12-07T00:00:27;33.30;;;23.75;;
51286;SDS011;37364;46.974;18.916;2022-12-07T00:02:59;28.80;;;23.08;;
51286;SDS011;37364;46.974;18.916;2022-12-07T00:05:29;28.67;;;22.92;;
51286;SDS011;37364;46.974;18.916;2022-12-07T00:07:59;28.73;;;22.85;;
51286;SDS011;37364;46.974;18.916;2022-12-07T00:10:32;31.65;;;22.92;;
51286;SDS011;37364;46.974;18.916;2022-12-07T00:13:02;33.08;;;25.17;;
51286;SDS011;37364;46.974;18.916;2022-12-07T00:15:33;31.20;;;24.05;;
51286;SDS011;37364;46.974;18.916;2022-12-07T00:18:05;30.67;;;24.85;;
51286;SDS011;37364;46.974;18.916;2022-12-07T00:20:35;39.08;;;25.17;;
51286;SDS011;37364;46.974;18.916;2022-12-07T00:23:06;34.85;;;26.65;;
51286;SDS011;37364;46.974;18.916;2022-12-07T00:25:38;33.42;;;25.73;;
51286;SDS011;37364;46.974;18.916;2022-12-07T00:28:08;32.67;;;24.95;;
51286;SDS011;37364;46.974;18.916;2022-12-07T00:30:39;35.45;;;24.50;;
51286;SDS011;37364;46.974;18.916;2022-12-07T00:33:09;42.22;;;25.83;;
51286;SDS011;37364;46.974;18.916;2022-12-07T00:35:40;31.38;;;23.42;;
51286;SDS011;37364;46.974;18.916;2022-12-07T00:38:10;33.10;;;25.60;;
51286;SDS011;37364;46.974;18.916;2022-12-07T00:40:43;31.95;;;23.65;;
51286;SDS011;37364;46.974;18.916;2022-12-07T00:43:14;31.65;;;24.42;;
51286;SDS011;37364;46.974;18.916;2022-12-07T00:45:46;40.58;;;25.02;;
51286;SDS011;37364;46.974;18.916;2022-12-07T00:48:17;36.83;;;24.50;;
51286;SDS011;37364;46.974;18.916;2022-12-07T00:50:47;37.72;;;24.98;;
51286;SDS011;37364;46.974;18.916;2022-12-07T00:53:18;35.10;;;25.85;;
51286;SDS011;37364;46.974;18.916;2022-12-07T00:55:51;31.52;;;23.70;;
51286;SDS011;37364;46.974;18.916;2022-12-07T00:58:22;32.22;;;25.23;;
51286;SDS011;37364;46.974;18.916;2022-12-07T01:00:53;37.67;;;25.27;;
51286;SDS011;37364;46.974;18.916;2022-12-07T01:03:24;36.78;;;25.95;;
51286;SDS011;37364;46.974;18.916;2022-12-07T01:05:55;36.25;;;26.23;;
51286;SDS011;37364;46.974;18.916;2022-12-07T01:08:26;43.38;;;27.00;;
51286;SDS011;37364;46.974;18.916;2022-12-07T01:11:00;40.35;;;25.63;;
51286;SDS011;37364;46.974;18.916;2022-12-07T01:13:33;37.83;;;25.67;;
51286;SDS011;37364;46.974;18.916;2022-12-07T01:16:05;35.58;;;24.63;;
51286;SDS011;37364;46.974;18.916;2022-12-07T01:18:36;36.88;;;26.00;;
51286;SDS011;37364;46.974;18.916;2022-12-07T01:21:06;34.15;;;24.98;;
51286;SDS011;37364;46.974;18.916;2022-12-07T01:23:39;35.65;;;25.88;;
51286;SDS011;37364;46.974;18.916;2022-12-07T01:26:14;36.28;;;25.92;;
51286;SDS011;37364;46.974;18.916;2022-12-07T01:28:45;31.48;;;24.02;;
51286;SDS011;37364;46.974;18.916;2022-12-07T01:31:16;34.80;;;26.00;;
51286;SDS011;37364;46.974;18.916;2022-12-07T01:33:49;35.70;;;24.77;;
51286;SDS011;37364;46.974;18.916;2022-12-07T01:36:23;31.85;;;23.88;;
51286;SDS011;37364;46.974;18.916;2022-12-07T01:38:55;33.85;;;23.85;;
51286;SDS011;37364;46.974;18.916;2022-12-07T01:41:30;38.17;;;24.67;;
51286;SDS011;37364;46.974;18.916;2022-12-07T01:46:53;36.55;;;24.95;;
51286;SDS011;37364;46.974;18.916;2022-12-07T01:49:28;33.80;;;24.63;;
51286;SDS011;37364;46.974;18.916;2022-12-07T01:52:03;37.13;;;25.27;;
51286;SDS011;37364;46.974;18.916;2022-12-07T01:54:39;35.80;;;24.80;;
51286;SDS011;37364;46.974;18.916;2022-12-07T01:57:13;41.35;;;25.73;;
51286;SDS011;37364;46.974;18.916;2022-12-07T01:59:45;43.38;;;26.90;;
51286;SDS011;37364;46.974;18.916;2022-12-07T02:02:17;40.22;;;26.48;;
51286;SDS011;37364;46.974;18.916;2022-12-07T02:04:49;35.25;;;24.35;;
51286;SDS011;37364;46.974;18.916;2022-12-07T02:07:21;35.22;;;24.88;;
51286;SDS011;37364;46.974;18.916;2022-12-07T02:09:53;42.97;;;25.58;;
51286;SDS011;37364;46.974;18.916;2022-12-07T02:12:26;46.75;;;27.08;;
51286;SDS011;37364;46.974;18.916;2022-12-07T02:14:56;43.33;;;27.00;;
51286;SDS011;37364;46.974;18.916;2022-12-07T02:17:28;42.97;;;26.60;;
51286;SDS011;37364;46.974;18.916;2022-12-07T02:20:17;37.42;;;26.98;;
51286;SDS011;37364;46.974;18.916;2022-12-07T02:23:04;42.65;;;28.25;;
51286;SDS011;37364;46.974;18.916;2022-12-07T02:25:59;48.70;;;29.98;;
51286;SDS011;37364;46.974;18.916;2022-12-07T02:28:53;54.42;;;30.25;;
51286;SDS011;37364;46.974;18.916;2022-12-07T02:31:33;51.75;;;30.50;;
51286;SDS011;37364;46.974;18.916;2022-12-07T02:34:07;48.08;;;31.10;;
51286;SDS011;37364;46.974;18.916;2022-12-07T02:36:42;45.08;;;29.60;;
51286;SDS011;37364;46.974;18.916;2022-12-07T02:39:16;45.00;;;29.70;;
51286;SDS011;37364;46.974;18.916;2022-12-07T02:41:52;47.83;;;31.42;;
51286;SDS011;37364;46.974;18.916;2022-12-07T02:44:30;48.88;;;31.05;;
51286;SDS011;37364;46.974;18.916;2022-12-07T02:47:03;49.00;;;32.17;;
51286;SDS011;37364;46.974;18.916;2022-12-07T02:49:36;55.50;;;31.98;;
51286;SDS011;37364;46.974;18.916;2022-12-07T02:52:09;57.78;;;31.65;;
51286;SDS011;37364;46.974;18.916;2022-12-07T02:54:40;50.20;;;31.83;;
51286;SDS011;37364;46.974;18.916;2022-12-07T02:57:17;46.40;;;30.88;;
51286;SDS011;37364;46.974;18.916;2022-12-07T03:00:04;50.78;;;31.40;;
51286;SDS011;37364;46.974;18.916;2022-12-07T03:02:41;64.13;;;34.38;;
51286;SDS011;37364;46.974;18.916;2022-12-07T03:08:18;61.08;;;35.38;;
51286;SDS011;37364;46.974;18.916;2022-12-07T03:10:57;62.13;;;34.92;;
51286;SDS011;37364;46.974;18.916;2022-12-07T03:13:31;65.80;;;36.78;;
51286;SDS011;37364;46.974;18.916;2022-12-07T03:16:14;75.93;;;39.78;;
51286;SDS011;37364;46.974;18.916;2022-12-07T03:18:47;67.18;;;37.95;;
51286;SDS011;37364;46.974;18.916;2022-12-07T03:21:22;66.90;;;37.95;;
51286;SDS011;37364;46.974;18.916;2022-12-07T03:23:57;75.07;;;38.85;;
51286;SDS011;37364;46.974;18.916;2022-12-07T03:26:30;68.85;;;38.75;;
51286;SDS011;37364;46.974;18.916;2022-12-07T03:29:06;71.47;;;39.25;;
51286;SDS011;37364;46.974;18.916;2022-12-07T03:31:43;73.10;;;39.35;;
51286;SDS011;37364;46.974;18.916;2022-12-07T03:34:19;81.63;;;39.30;;
51286;SDS011;37364;46.974;18.916;2022-12-07T03:36:56;78.07;;;39.78;;
51286;SDS011;37364;46.974;18.916;2022-12-07T03:39:33;78.75;;;40.28;;
51286;SDS011;37364;46.974;18.916;2022-12-07T03:42:09;71.07;;;37.03;;
51286;SDS011;37364;46.974;18.916;2022-12-07T03:44:40;84.70;;;40.95;;
51286;SDS011;37364;46.974;18.916;2022-12-07T03:47:16;82.10;;;39.95;;
51286;SDS011;37364;46.974;18.916;2022-12-07T03:49:59;81.93;;;39.85;;
51286;SDS011;37364;46.974;18.916;2022-12-07T03:52:36;88.88;;;43.28;;
51286;SDS011;37364;46.974;18.916;2022-12-07T03:55:11;85.55;;;40.88;;
51286;SDS011;37364;46.974;18.916;2022-12-07T03:57:49;85.57;;;40.05;;
51286;SDS011;37364;46.974;18.916;2022-12-07T04:02:59;64.97;;;36.30;;
51286;SDS011;37364;46.974;18.916;2022-12-07T04:05:30;61.63;;;34.90;;
51286;SDS011;37364;46.974;18.916;2022-12-07T04:08:00;71.18;;;38.35;;
51286;SDS011;37364;46.974;18.916;2022-12-07T04:10:31;65.63;;;35.58;;
51286;SDS011;37364;46.974;18.916;2022-12-07T04:13:01;64.40;;;35.78;;
51286;SDS011;37364;46.974;18.916;2022-12-07T04:15:33;60.85;;;35.05;;
51286;SDS011;37364;46.974;18.916;2022-12-07T04:18:07;65.60;;;33.58;;
51286;SDS011;37364;46.974;18.916;2022-12-07T04:20:37;69.80;;;35.13;;
51286;SDS011;37364;46.974;18.916;2022-12-07T04:23:07;60.30;;;33.35;;
51286;SDS011;37364;46.974;18.916;2022-12-07T04:25:38;68.05;;;35.08;;
51286;SDS011;37364;46.974;18.916;2022-12-07T04:28:08;61.20;;;34.95;;
51286;SDS011;37364;46.974;18.916;2022-12-07T04:30:38;65.80;;;34.80;;
51286;SDS011;37364;46.974;18.916;2022-12-07T04:33:12;67.47;;;36.15;;
51286;SDS011;37364;46.974;18.916;2022-12-07T04:35:43;54.20;;;32.25;;
51286;SDS011;37364;46.974;18.916;2022-12-07T04:38:13;57.65;;;34.25;;
51286;SDS011;37364;46.974;18.916;2022-12-07T04:40:44;58.63;;;32.53;;
51286;SDS011;37364;46.974;18.916;2022-12-07T04:43:14;62.33;;;33.15;;
51286;SDS011;37364;46.974;18.916;2022-12-07T04:45:45;53.15;;;32.75;;
51286;SDS011;37364;46.974;18.916;2022-12-07T04:48:20;56.60;;;33.15;;
51286;SDS011;37364;46.974;18.916;2022-12-07T04:50:50;63.35;;;34.95;;
51286;SDS011;37364;46.974;18.916;2022-12-07T04:53:21;63.65;;;32.80;;
51286;SDS011;37364;46.974;18.916;2022-12-07T04:55:52;58.40;;;33.35;;
51286;SDS011;37364;46.974;18.916;2022-12-07T04:58:23;61.53;;;33.83;;
51286;SDS011;37364;46.974;18.916;2022-12-07T05:00:53;60.35;;;33.63;;
51286;SDS011;37364;46.974;18.916;2022-12-07T05:03:28;62.20;;;33.97;;
51286;SDS011;37364;46.974;18.916;2022-12-07T05:05:58;61.08;;;36.13;;
51286;SDS011;37364;46.974;18.916;2022-12-07T05:08:29;65.90;;;36.13;;
51286;SDS011;37364;46.974;18.916;2022-12-07T05:10:59;73.40;;;36.65;;
51286;SDS011;37364;46.974;18.916;2022-12-07T05:13:30;58.85;;;35.05;;
51286;SDS011;37364;46.974;18.916;2022-12-07T05:16:01;75.22;;;37.88;;
51286;SDS011;37364;46.974;18.916;2022-12-07T05:18:36;69.43;;;36.08;;
51286;SDS011;37364;46.974;18.916;2022-12-07T05:21:06;68.47;;;35.87;;
51286;SDS011;37364;46.974;18.916;2022-12-07T05:23:36;65.80;;;38.53;;
51286;SDS011;37364;46.974;18.916;2022-12-07T05:26:06;74.50;;;37.78;;
51286;SDS011;37364;46.974;18.916;2022-12-07T05:28:37;71.93;;;37.58;;
51286;SDS011;37364;46.974;18.916;2022-12-07T05:31:07;73.07;;;39.03;;
51286;SDS011;37364;46.974;18.916;2022-12-07T05:33:41;63.75;;;38.10;;
51286;SDS011;37364;46.974;18.916;2022-12-07T05:36:11;77.45;;;38.80;;
51286;SDS011;37364;46.974;18.916;2022-12-07T05:38:42;74.57;;;40.10;;
51286;SDS011;37364;46.974;18.916;2022-12-07T05:41:14;70.35;;;41.60;;
51286;SDS011;37364;46.974;18.916;2022-12-07T05:43:57;77.15;;;40.75;;
51286;SDS011;37364;46.974;18.916;2022-12-07T05:46:28;88.57;;;42.47;;
51286;SDS011;37364;46.974;18.916;2022-12-07T05:49:01;79.75;;;43.15;;
51286;SDS011;37364;46.974;18.916;2022-12-07T05:51:32;95.32;;;47.60;;
51286;SDS011;37364;46.974;18.916;2022-12-07T05:54:03;90.75;;;46.95;;
51286;SDS011;37364;46.974;18.916;2022-12-07T05:56:33;85.95;;;48.78;;
51286;SDS011;37364;46.974;18.916;2022-12-07T05:59:04;87.07;;;49.63;;
51286;SDS011;37364;46.974;18.916;2022-12-07T06:01:46;87.18;;;47.47;;
51286;SDS011;37364;46.974;18.916;2022-12-07T06:04:20;86.25;;;46.83;;
51286;SDS011;37364;46.974;18.916;2022-12-07T06:06:52;83.32;;;46.53;;
51286;SDS011;37364;46.974;18.916;2022-12-07T06:09:22;94.10;;;46.40;;
51286;SDS011;37364;46.974;18.916;2022-12-07T06:11:54;85.85;;;48.92;;
51286;SDS011;37364;46.974;18.916;2022-12-07T06:14:37;102.47;;;50.00;;
51286;SDS011;37364;46.974;18.916;2022-12-07T06:17:08;99.82;;;52.22;;
51286;SDS011;37364;46.974;18.916;2022-12-07T06:19:42;97.07;;;52.25;;
51286;SDS011;37364;46.974;18.916;2022-12-07T06:22:12;108.72;;;55.15;;
51286;SDS011;37364;46.974;18.916;2022-12-07T06:24:44;93.32;;;52.08;;
51286;SDS011;37364;46.974;18.916;2022-12-07T06:27:14;103.15;;;57.00;;
51286;SDS011;37364;46.974;18.916;2022-12-07T06:29:44;99.38;;;54.22;;
51286;SDS011;37364;46.974;18.916;2022-12-07T06:32:14;136.75;;;69.63;;
51286;SDS011;37364;46.974;18.916;2022-12-07T06:34:48;120.07;;;56.83;;
51286;SDS011;37364;46.974;18.916;2022-12-07T06:37:19;102.05;;;51.17;;
51286;SDS011;37364;46.974;18.916;2022-12-07T06:39:50;105.82;;;53.97;;
51286;SDS011;37364;46.974;18.916;2022-12-07T06:42:20;97.30;;;50.70;;
51286;SDS011;37364;46.974;18.916;2022-12-07T06:44:51;100.78;;;52.85;;
51286;SDS011;37364;46.974;18.916;2022-12-07T06:47:23;113.63;;;55.80;;
51286;SDS011;37364;46.974;18.916;2022-12-07T06:50:11;100.93;;;50.03;;
51286;SDS011;37364;46.974;18.916;2022-12-07T06:52:42;114.00;;;52.17;;
51286;SDS011;37364;46.974;18.916;2022-12-07T06:55:13;108.95;;;52.45;;
51286;SDS011;37364;46.974;18.916;2022-12-07T06:57:44;109.82;;;50.95;;
51286;SDS011;37364;46.974;18.916;2022-12-07T07:00:15;121.57;;;51.47;;
51286;SDS011;37364;46.974;18.916;2022-12-07T07:02:48;98.87;;;50.60;;
51286;SDS011;37364;46.974;18.916;2022-12-07T07:05:22;120.20;;;52.78;;
51286;SDS011;37364;46.974;18.916;2022-12-07T07:07:52;104.90;;;54.23;;
51286;SDS011;37364;46.974;18.916;2022-12-07T07:10:42;113.53;;;52.58;;
51286;SDS011;37364;46.974;18.916;2022-12-07T07:13:13;113.18;;;56.72;;
51286;SDS011;37364;46.974;18.916;2022-12-07T07:15:43;106.82;;;56.85;;
51286;SDS011;37364;46.974;18.916;2022-12-07T07:18:15;119.38;;;58.35;;
51286;SDS011;37364;46.974;18.916;2022-12-07T07:20:49;103.78;;;52.33;;
51286;SDS011;37364;46.974;18.916;2022-12-07T07:25:51;107.78;;;54.28;;
51286;SDS011;37364;46.974;18.916;2022-12-07T07:28:22;137.23;;;70.45;;
51286;SDS011;37364;46.974;18.916;2022-12-07T07:30:53;124.70;;;65.38;;
51286;SDS011;37364;46.974;18.916;2022-12-07T07:33:23;101.28;;;50.40;;
51286;SDS011;37364;46.974;18.916;2022-12-07T07:35:56;126.47;;;66.05;;
51286;SDS011;37364;46.974;18.916;2022-12-07T07:38:27;97.97;;;50.58;;
51286;SDS011;37364;46.974;18.916;2022-12-07T07:40:57;100.20;;;56.05;;
51286;SDS011;37364;46.974;18.916;2022-12-07T07:43:28;100.57;;;52.45;;
51286;SDS011;37364;46.974;18.916;2022-12-07T07:45:59;101.45;;;51.22;;
51286;SDS011;37364;46.974;18.916;2022-12-07T07:48:30;106.45;;;51.40;;
51286;SDS011;37364;46.974;18.916;2022-12-07T07:51:03;121.10;;;60.47;;
51286;SDS011;37364;46.974;18.916;2022-12-07T07:53:35;111.30;;;56.42;;
51286;SDS011;37364;46.974;18.916;2022-12-07T07:56:05;135.30;;;62.92;;
51286;SDS011;37364;46.974;18.916;2022-12-07T07:58:36;167.13;;;87.30;;
51286;SDS011;37364;46.974;18.916;2022-12-07T08:01:06;117.32;;;61.72;;
51286;SDS011;37364;46.974;18.916;2022-12-07T08:03:37;139.70;;;74.28;;
51286;SDS011;37364;46.974;18.916;2022-12-07T08:06:12;126.80;;;66.70;;
51286;SDS011;37364;46.974;18.916;2022-12-07T08:08:43;144.02;;;73.90;;
51286;SDS011;37364;46.974;18.916;2022-12-07T08:11:15;128.93;;;69.70;;
51286;SDS011;37364;46.974;18.916;2022-12-07T08:13:45;131.50;;;70.28;;
51286;SDS011;37364;46.974;18.916;2022-12-07T08:16:16;117.25;;;67.80;;
51286;SDS011;37364;46.974;18.916;2022-12-07T08:18:48;126.30;;;67.45;;
51286;SDS011;37364;46.974;18.916;2022-12-07T08:21:21;122.88;;;64.10;;
51286;SDS011;37364;46.974;18.916;2022-12-07T08:23:52;107.65;;;58.40;;
51286;SDS011;37364;46.974;18.916;2022-12-07T08:26:24;103.68;;;56.42;;
51286;SDS011;37364;46.974;18.916;2022-12-07T08:28:55;100.93;;;54.72;;
51286;SDS011;37364;46.974;18.916;2022-12-07T08:31:25;104.53;;;56.50;;
51286;SDS011;37364;46.974;18.916;2022-12-07T08:33:55;107.32;;;56.58;;
51286;SDS011;37364;46.974;18.916;2022-12-07T08:36:29;101.47;;;54.35;;
51286;SDS011;37364;46.974;18.916;2022-12-07T08:39:00;104.28;;;55.97;;
51286;SDS011;37364;46.974;18.916;2022-12-07T08:41:50;98.50;;;52.42;;
51286;SDS011;37364;46.974;18.916;2022-12-07T08:44:21;95.82;;;50.92;;
51286;SDS011;37364;46.974;18.916;2022-12-07T08:46:51;88.03;;;48.67;;
51286;SDS011;37364;46.974;18.916;2022-12-07T08:49:26;73.35;;;43.65;;
51286;SDS011;37364;46.974;18.916;2022-12-07T08:52:05;69.95;;;40.83;;
51286;SDS011;37364;46.974;18.916;2022-12-07T08:54:36;80.72;;;43.58;;
51286;SDS011;37364;46.974;18.916;2022-12-07T08:57:09;76.65;;;40.35;;
51286;SDS011;37364;46.974;18.916;2022-12-07T08:59:40;72.85;;;40.90;;
51286;SDS011;37364;46.974;18.916;2022-12-07T09:02:11;74.57;;;41.38;;
51286;SDS011;37364;46.974;18.916;2022-12-07T09:04:42;78.18;;;41.65;;
51286;SDS011;37364;46.974;18.916;2022-12-07T09:07:15;92.05;;;45.65;;
51286;SDS011;37364;46.974;18.916;2022-12-07T09:09:46;124.43;;;63.95;;
51286;SDS011;37364;46.974;18.916;2022-12-07T09:12:17;91.22;;;47.25;;
51286;SDS011;37364;46.974;18.916;2022-12-07T09:14:47;154.25;;;72.40;;
51286;SDS011;37364;46.974;18.916;2022-12-07T09:17:18;113.25;;;52.85;;
51286;SDS011;37364;46.974;18.916;2022-12-07T09:19:49;110.72;;;53.85;;
51286;SDS011;37364;46.974;18.916;2022-12-07T09:22:22;120.55;;;60.85;;
51286;SDS011;37364;46.974;18.916;2022-12-07T09:24:53;107.32;;;54.13;;
51286;SDS011;37364;46.974;18.916;2022-12-07T09:27:24;109.57;;;55.45;;
51286;SDS011;37364;46.974;18.916;2022-12-07T09:29:55;106.88;;;54.70;;
51286;SDS011;37364;46.974;18.916;2022-12-07T09:32:26;121.03;;;62.50;;
51286;SDS011;37364;46.974;18.916;2022-12-07T09:34:57;105.03;;;57.10;;
51286;SDS011;37364;46.974;18.916;2022-12-07T09:37:30;93.45;;;50.47;;
51286;SDS011;37364;46.974;18.916;2022-12-07T09:40:03;107.28;;;59.65;;
51286;SDS011;37364;46.974;18.916;2022-12-07T09:42:35;164.30;;;89.13;;
51286;SDS011;37364;46.974;18.916;2022-12-07T09:45:11;99.32;;;55.70;;
51286;SDS011;37364;46.974;18.916;2022-12-07T09:47:45;85.95;;;48.70;;
51286;SDS011;37364;46.974;18.916;2022-12-07T09:50:16;93.15;;;53.72;;
51286;SDS011;37364;46.974;18.916;2022-12-07T09:52:54;78.97;;;45.25;;
51286;SDS011;37364;46.974;18.916;2022-12-07T09:55:34;82.67;;;48.07;;
51286;SDS011;37364;46.974;18.916;2022-12-07T09:58:08;68.43;;;40.45;;
51286;SDS011;37364;46.974;18.916;2022-12-07T10:00:47;66.53;;;39.60;;
51286;SDS011;37364;46.974;18.916;2022-12-07T10:03:18;65.03;;;40.90;;
51286;SDS011;37364;46.974;18.916;2022-12-07T10:05:50;50.08;;;33.60;;
51286;SDS011;37364;46.974;18.916;2022-12-07T10:08:24;57.28;;;36.67;;
51286;SDS011;37364;46.974;18.916;2022-12-07T10:10:55;72.88;;;49.80;;
51286;SDS011;37364;46.974;18.916;2022-12-07T10:13:33;54.75;;;36.50;;
51286;SDS011;37364;46.974;18.916;2022-12-07T10:16:05;62.30;;;40.72;;
51286;SDS011;37364;46.974;18.916;2022-12-07T10:18:39;40.03;;;28.65;;
51286;SDS011;37364;46.974;18.916;2022-12-07T10:21:12;41.33;;;28.85;;
51286;SDS011;37364;46.974;18.916;2022-12-07T10:24:01;34.35;;;25.58;;
51286;SDS011;37364;46.974;18.916;2022-12-07T10:26:34;38.42;;;26.08;;
51286;SDS011;37364;46.974;18.916;2022-12-07T10:29:13;35.78;;;26.73;;
51286;SDS011;37364;46.974;18.916;2022-12-07T10:31:50;36.17;;;26.33;;
51286;SDS011;37364;46.974;18.916;2022-12-07T10:34:24;31.67;;;24.05;;
51286;SDS011;37364;46.974;18.916;2022-12-07T10:37:15;33.28;;;25.70;;
51286;SDS011;37364;46.974;18.916;2022-12-07T10:39:50;33.35;;;24.20;;
51286;SDS011;37364;46.974;18.916;2022-12-07T10:42:23;51.40;;;37.53;;
51286;SDS011;37364;46.974;18.916;2022-12-07T10:45:06;31.30;;;26.17;;
51286;SDS011;37364;46.974;18.916;2022-12-07T10:47:42;30.13;;;24.90;;
51286;SDS011;37364;46.974;18.916;2022-12-07T10:50:31;25.95;;;21.92;;
51286;SDS011;37364;46.974;18.916;2022-12-07T10:53:43;34.17;;;22.08;;
51286;SDS011;37364;46.974;18.916;2022-12-07T10:56:35;24.58;;;20.85;;
51286;SDS011;37364;46.974;18.916;2022-12-07T11:02:48;35.83;;;26.98;;
51286;SDS011;37364;46.974;18.916;2022-12-07T11:05:30;91.47;;;64.47;;
51286;SDS011;37364;46.974;18.916;2022-12-07T11:08:12;83.95;;;57.00;;
51286;SDS011;37364;46.974;18.916;2022-12-07T11:10:52;66.13;;;49.65;;
51286;SDS011;37364;46.974;18.916;2022-12-07T11:13:32;31.65;;;23.35;;
51286;SDS011;37364;46.974;18.916;2022-12-07T11:16:16;28.02;;;20.35;;
51286;SDS011;37364;46.974;18.916;2022-12-07T11:18:55;30.48;;;24.80;;
51286;SDS011;37364;46.974;18.916;2022-12-07T11:21:37;25.10;;;18.80;;
51286;SDS011;37364;46.974;18.916;2022-12-07T11:24:16;22.92;;;19.60;;
51286;SDS011;37364;46.974;18.916;2022-12-07T11:26:55;24.67;;;20.15;;
51286;SDS011;37364;46.974;18.916;2022-12-07T11:29:40;22.98;;;18.85;;
51286;SDS011;37364;46.974;18.916;2022-12-07T11:32:28;26.15;;;20.73;;
51286;SDS011;37364;46.974;18.916;2022-12-07T11:35:14;29.17;;;20.85;;
51286;SDS011;37364;46.974;18.916;2022-12-07T11:38:01;21.52;;;17.73;;
51286;SDS011;37364;46.974;18.916;2022-12-07T11:40:40;26.27;;;21.45;;
51286;SDS011;37364;46.974;18.916;2022-12-07T11:43:15;23.80;;;18.38;;
51286;SDS011;37364;46.974;18.916;2022-12-07T11:45:56;27.60;;;20.35;;
51286;SDS011;37364;46.974;18.916;2022-12-07T11:48:34;23.92;;;20.10;;
51286;SDS011;37364;46.974;18.916;2022-12-07T11:51:09;22.67;;;19.08;;
51286;SDS011;37364;46.974;18.916;2022-12-07T11:53:43;26.10;;;18.38;;
51286;SDS011;37364;46.974;18.916;2022-12-07T11:56:19;22.60;;;15.93;;
51286;SDS011;37364;46.974;18.916;2022-12-07T11:58:53;21.45;;;17.48;;
51286;SDS011;37364;46.974;18.916;2022-12-07T12:01:35;20.65;;;18.20;;
51286;SDS011;37364;46.974;18.916;2022-12-07T12:04:20;20.88;;;17.65;;
51286;SDS011;37364;46.974;18.916;2022-12-07T12:06:57;25.20;;;17.48;;
51286;SDS011;37364;46.974;18.916;2022-12-07T12:09:49;21.13;;;16.35;;
51286;SDS011;37364;46.974;18.916;2022-12-07T12:12:31;23.05;;;17.05;;
51286;SDS011;37364;46.974;18.916;2022-12-07T12:15:45;28.40;;;17.98;;
51286;SDS011;37364;46.974;18.916;2022-12-07T12:18:30;25.48;;;19.17;;
51286;SDS011;37364;46.974;18.916;2022-12-07T12:21:12;18.80;;;15.38;;
51286;SDS011;37364;46.974;18.916;2022-12-07T12:23:47;20.48;;;17.23;;
51286;SDS011;37364;46.974;18.916;2022-12-07T12:26:24;20.60;;;16.77;;
51286;SDS011;37364;46.974;18.916;2022-12-07T12:28:57;20.58;;;16.98;;
51286;SDS011;37364;46.974;18.916;2022-12-07T12:31:35;20.45;;;16.52;;
51286;SDS011;37364;46.974;18.916;2022-12-07T12:52:51;136.15;;;49.78;;
51286;SDS011;37364;46.974;18.916;2022-12-07T12:55:53;447.38;;;195.93;;
51286;SDS011;37364;46.974;18.916;2022-12-07T12:58:41;135.63;;;54.80;;
51286;SDS011;37364;46.974;18.916;2022-12-07T13:04:28;76.38;;;38.13;;
51286;SDS011;37364;46.974;18.916;2022-12-07T13:07:47;74.88;;;38.85;;
51286;SDS011;37364;46.974;18.916;2022-12-07T13:10:25;44.40;;;28.42;;
51286;SDS011;37364;46.974;18.916;2022-12-07T13:13:31;41.13;;;22.95;;
51286;SDS011;37364;46.974;18.916;2022-12-07T13:28:32;32.88;;;22.02;;
51286;SDS011;37364;46.974;18.916;2022-12-07T13:34:03;52.25;;;31.63;;
51286;SDS011;37364;46.974;18.916;2022-12-07T13:36:37;33.33;;;22.08;;
51286;SDS011;37364;46.974;18.916;2022-12-07T13:39:16;58.53;;;32.03;;
51286;SDS011;37364;46.974;18.916;2022-12-07T13:41:53;44.95;;;30.23;;
51286;SDS011;37364;46.974;18.916;2022-12-07T13:44:24;16.90;;;13.52;;
51286;SDS011;37364;46.974;18.916;2022-12-07T13:46:59;28.20;;;18.83;;
51286;SDS011;37364;46.974;18.916;2022-12-07T13:49:36;64.90;;;37.85;;
51286;SDS011;37364;46.974;18.916;2022-12-07T13:52:15;38.22;;;25.08;;
51286;SDS011;37364;46.974;18.916;2022-12-07T13:54:48;20.13;;;16.10;;
51286;SDS011;37364;46.974;18.916;2022-12-07T13:57:22;24.75;;;17.92;;
51286;SDS011;37364;46.974;18.916;2022-12-07T13:59:54;113.55;;;56.28;;
51286;SDS011;37364;46.974;18.916;2022-12-07T14:02:27;115.15;;;57.67;;
51286;SDS011;37364;46.974;18.916;2022-12-07T14:05:09;219.88;;;107.80;;
51286;SDS011;37364;46.974;18.916;2022-12-07T14:07:53;116.22;;;57.13;;
51286;SDS011;37364;46.974;18.916;2022-12-07T14:10:25;47.72;;;31.42;;
51286;SDS011;37364;46.974;18.916;2022-12-07T14:13:00;25.88;;;19.27;;
51286;SDS011;37364;46.974;18.916;2022-12-07T14:15:33;19.52;;;16.40;;
51286;SDS011;37364;46.974;18.916;2022-12-07T14:21:03;67.97;;;36.67;;
51286;SDS011;37364;46.974;18.916;2022-12-07T14:23:34;65.28;;;39.13;;
51286;SDS011;37364;46.974;18.916;2022-12-07T14:26:07;54.00;;;33.83;;
51286;SDS011;37364;46.974;18.916;2022-12-07T14:28:43;46.63;;;27.80;;
51286;SDS011;37364;46.974;18.916;2022-12-07T14:31:15;37.70;;;25.48;;
51286;SDS011;37364;46.974;18.916;2022-12-07T14:33:58;93.43;;;58.20;;
51286;SDS011;37364;46.974;18.916;2022-12-07T14:36:29;41.47;;;24.33;;
51286;SDS011;37364;46.974;18.916;2022-12-07T14:38:59;28.50;;;19.30;;
51286;SDS011;37364;46.974;18.916;2022-12-07T14:41:37;48.38;;;29.58;;
51286;SDS011;37364;46.974;18.916;2022-12-07T14:44:25;54.88;;;31.58;;
51286;SDS011;37364;46.974;18.916;2022-12-07T14:47:01;168.93;;;99.60;;
51286;SDS011;37364;46.974;18.916;2022-12-07T14:49:51;57.70;;;38.45;;
51286;SDS011;37364;46.974;18.916;2022-12-07T14:52:27;39.70;;;27.85;;
51286;SDS011;37364;46.974;18.916;2022-12-07T14:55:21;33.05;;;22.50;;
51286;SDS011;37364;46.974;18.916;2022-12-07T14:57:54;36.38;;;23.63;;
51286;SDS011;37364;46.974;18.916;2022-12-07T15:00:29;32.92;;;22.48;;
51286;SDS011;37364;46.974;18.916;2022-12-07T15:03:01;36.90;;;25.00;;
51286;SDS011;37364;46.974;18.916;2022-12-07T15:05:32;38.50;;;25.17;;
51286;SDS011;37364;46.974;18.916;2022-12-07T15:08:03;42.20;;;28.92;;
51286;SDS011;37364;46.974;18.916;2022-12-07T15:10:34;46.13;;;31.73;;
51286;SDS011;37364;46.974;18.916;2022-12-07T15:13:05;65.32;;;36.72;;
51286;SDS011;37364;46.974;18.916;2022-12-07T15:15:52;69.20;;;40.63;;
51286;SDS011;37364;46.974;18.916;2022-12-07T15:18:24;71.78;;;37.00;;
51286;SDS011;37364;46.974;18.916;2022-12-07T15:20:54;47.65;;;28.20;;
51286;SDS011;37364;46.974;18.916;2022-12-07T15:23:25;47.53;;;27.40;;
51286;SDS011;37364;46.974;18.916;2022-12-07T15:25:55;48.90;;;28.52;;
51286;SDS011;37364;46.974;18.916;2022-12-07T15:28:26;44.03;;;27.33;;
51286;SDS011;37364;46.974;18.916;2022-12-07T15:31:00;43.50;;;27.80;;
51286;SDS011;37364;46.974;18.916;2022-12-07T15:33:50;39.80;;;27.92;;
51286;SDS011;37364;46.974;18.916;2022-12-07T15:36:21;37.63;;;28.23;;
51286;SDS011;37364;46.974;18.916;2022-12-07T15:38:53;48.05;;;34.13;;
51286;SDS011;37364;46.974;18.916;2022-12-07T15:41:41;79.15;;;50.97;;
51286;SDS011;37364;46.974;18.916;2022-12-07T15:44:12;85.70;;;56.70;;